createdAt,value
2023-02-20T00:00:57.125Z,10.05
2023-02-20T00:03:29.150Z,7.07
2023-02-20T00:05:59.976Z,5.97
2023-02-20T00:08:36.455Z,7.97
2023-02-20T00:11:09.326Z,6.93
2023-02-20T00:13:40.103Z,4.65
2023-02-20T00:16:12.688Z,8.07
2023-02-20T00:18:44.781Z,7.18
2023-02-20T00:21:21.938Z,5.65
2023-02-20T00:23:52.715Z,7.97
2023-02-20T00:26:24.962Z,5.15
2023-02-20T00:28:55.740Z,6.43
2023-02-20T00:31:26.776Z,6.63
2023-02-20T00:33:57.859Z,6.65
2023-02-20T00:36:28.812Z,4.65
2023-02-20T00:39:01.390Z,5.43
2023-02-20T00:41:32.909Z,6.70
2023-02-20T00:44:04.527Z,7.07
2023-02-20T00:46:35.242Z,5.82
2023-02-20T00:49:07.125Z,4.70
2023-02-20T00:51:38.335Z,4.47
2023-02-20T00:54:09.769Z,6.80
2023-02-20T00:56:40.484Z,5.55
2023-02-20T00:59:11.697Z,6.60
2023-02-20T01:01:42.727Z,4.97
2023-02-20T01:06:56.812Z,7.80
2023-02-20T01:09:31.089Z,5.30
2023-02-20T01:12:01.827Z,6.15
2023-02-20T01:14:33.793Z,8.10
2023-02-20T01:17:04.682Z,8.13
2023-02-20T01:19:35.554Z,5.25
2023-02-20T01:22:10.849Z,3.95
2023-02-20T01:24:41.795Z,11.43
2023-02-20T01:27:14.300Z,5.70
2023-02-20T01:29:46.840Z,4.43
2023-02-20T01:32:17.550Z,8.35
2023-02-20T01:34:49.047Z,5.78
2023-02-20T01:37:20.253Z,4.20
2023-02-20T01:39:52.381Z,4.78
2023-02-20T01:42:27.025Z,4.60
2023-02-20T01:44:57.749Z,6.63
2023-02-20T01:47:29.648Z,4.53
2023-02-20T01:50:06.177Z,4.57
2023-02-20T01:52:41.969Z,6.05
2023-02-20T01:55:19.547Z,5.53
2023-02-20T01:58:16.647Z,4.47
2023-02-20T02:03:23.909Z,4.32
2023-02-20T02:06:03.606Z,4.00
2023-02-20T02:08:36.464Z,4.50
2023-02-20T02:11:21.509Z,4.43
2023-02-20T02:13:52.261Z,3.90
2023-02-20T02:16:23.140Z,6.28
2023-02-20T02:19:05.077Z,5.95
2023-02-20T02:22:10.688Z,3.78
2023-02-20T02:25:16.185Z,4.97
2023-02-20T02:27:54.071Z,3.17
2023-02-20T02:30:53.139Z,5.18
2023-02-20T02:33:47.350Z,3.78
2023-02-20T02:36:36.194Z,8.10
2023-02-20T02:39:21.916Z,3.67
2023-02-20T02:42:03.895Z,4.13
2023-02-20T02:44:43.687Z,4.97
2023-02-20T02:47:26.249Z,3.90
2023-02-20T02:50:03.568Z,4.07
2023-02-20T02:52:43.281Z,4.68
2023-02-20T02:55:14.473Z,5.53
2023-02-20T02:57:47.127Z,4.90
2023-02-20T03:00:30.366Z,4.22
2023-02-20T03:03:27.235Z,3.55
2023-02-20T03:06:10.833Z,3.17
2023-02-20T03:08:59.733Z,2.05
2023-02-20T03:11:35.777Z,5.75
2023-02-20T03:14:42.058Z,5.10
2023-02-20T03:17:32.027Z,2.08
2023-02-20T03:20:08.327Z,3.65
2023-02-20T03:22:56.322Z,4.22
2023-02-20T03:25:47.174Z,3.20
2023-02-20T03:28:27.851Z,2.83
2023-02-20T03:31:13.307Z,2.55
2023-02-20T03:34:36.416Z,3.28
2023-02-20T03:37:32.758Z,2.50
2023-02-20T03:43:20.913Z,1.85
2023-02-20T03:45:52.368Z,3.15
2023-02-20T03:48:29.129Z,4.22
2023-02-20T03:51:19.365Z,2.55
2023-02-20T03:53:50.546Z,4.00
2023-02-20T03:56:28.915Z,2.75
2023-02-20T03:59:33.838Z,2.60
2023-02-20T04:02:20.810Z,2.65
2023-02-20T04:04:59.620Z,2.53
2023-02-20T04:07:39.955Z,3.33
2023-02-20T04:10:16.400Z,2.95
2023-02-20T04:12:50.431Z,4.80
2023-02-20T04:15:24.301Z,4.50
2023-02-20T04:18:03.666Z,3.28
2023-02-20T04:20:35.229Z,2.55
2023-02-20T04:23:27.956Z,2.38
2023-02-20T04:26:18.624Z,2.78
2023-02-20T04:28:49.605Z,3.72
2023-02-20T04:31:21.637Z,3.00
2023-02-20T04:33:52.557Z,3.10
2023-02-20T04:36:23.411Z,3.15
2023-02-20T04:38:55.038Z,3.30
2023-02-20T04:41:26.262Z,1.67
2023-02-20T04:44:16.872Z,2.20
2023-02-20T04:46:47.599Z,4.28
2023-02-20T04:49:18.571Z,2.75
2023-02-20T04:51:49.231Z,4.13
2023-02-20T04:54:21.137Z,3.70
2023-02-20T04:56:52.958Z,2.85
2023-02-20T04:59:23.799Z,2.55
2023-02-20T05:01:56.476Z,3.40
2023-02-20T05:04:27.458Z,2.40
2023-02-20T05:06:59.064Z,2.00
2023-02-20T05:09:30.634Z,5.00
2023-02-20T05:12:01.620Z,2.45
2023-02-20T05:14:32.273Z,2.50
2023-02-20T05:17:02.688Z,5.03
2023-02-20T05:19:33.340Z,2.40
2023-02-20T05:22:24.402Z,3.38
2023-02-20T05:24:57.734Z,5.72
2023-02-20T05:27:29.642Z,1.75
2023-02-20T05:30:02.412Z,2.95
2023-02-20T05:32:35.126Z,3.67
2023-02-20T05:35:05.777Z,3.80
2023-02-20T05:37:35.994Z,2.00
2023-02-20T05:40:07.451Z,3.63
2023-02-20T05:42:37.981Z,2.83
2023-02-20T05:45:08.401Z,2.60
2023-02-20T05:47:41.022Z,2.65
2023-02-20T05:50:11.509Z,3.83
2023-02-20T05:52:42.178Z,4.55
2023-02-20T05:55:12.747Z,3.28
2023-02-20T05:57:42.982Z,2.80
2023-02-20T06:00:14.370Z,3.72
2023-02-20T06:02:45.057Z,3.40
2023-02-20T06:05:15.690Z,3.35
2023-02-20T06:07:49.538Z,3.67
2023-02-20T06:10:22.390Z,2.00
2023-02-20T06:12:52.683Z,3.17
2023-02-20T06:15:23.042Z,2.28
2023-02-20T06:17:53.450Z,3.75
2023-02-20T06:20:24.237Z,1.90
2023-02-20T06:22:54.459Z,2.38
2023-02-20T06:25:24.806Z,2.17
2023-02-20T06:27:55.540Z,2.40
2023-02-20T06:30:26.072Z,3.65
2023-02-20T06:32:56.534Z,4.75
2023-02-20T06:35:26.959Z,5.07
2023-02-20T06:37:58.182Z,5.30
2023-02-20T06:40:29.920Z,3.88
2023-02-20T06:43:01.749Z,2.28
2023-02-20T06:45:34.413Z,3.85
2023-02-20T06:48:06.590Z,3.72
2023-02-20T06:50:37.401Z,2.38
2023-02-20T06:53:07.728Z,2.55
2023-02-20T06:55:38.025Z,3.45
2023-02-20T06:58:09.645Z,2.58
2023-02-20T07:00:40.855Z,2.03
2023-02-20T07:03:11.196Z,3.17
2023-02-20T07:05:41.932Z,3.20
2023-02-20T07:08:12.655Z,2.47
2023-02-20T07:10:42.915Z,3.75
2023-02-20T07:13:13.644Z,3.50
2023-02-20T07:15:44.288Z,9.30
2023-02-20T07:18:14.917Z,3.10
2023-02-20T07:20:45.480Z,2.53
2023-02-20T07:23:16.951Z,2.78
2023-02-20T07:25:48.283Z,3.20
2023-02-20T07:28:20.521Z,4.05
2023-02-20T07:30:51.749Z,5.32
2023-02-20T07:33:22.629Z,2.88
2023-02-20T07:35:52.926Z,4.22
2023-02-20T07:38:32.404Z,2.80
2023-02-20T07:41:02.674Z,2.80
2023-02-20T07:43:32.994Z,5.85
2023-02-20T07:46:05.965Z,4.20
2023-02-20T07:48:38.907Z,4.95
2023-02-20T07:51:11.678Z,4.80
2023-02-20T07:53:43.543Z,4.82
2023-02-20T07:56:16.246Z,4.30
2023-02-20T07:58:50.398Z,4.10
2023-02-20T08:01:23.614Z,3.85
2023-02-20T08:03:55.065Z,3.55
2023-02-20T08:06:26.743Z,5.65
2023-02-20T08:09:00.586Z,3.92
2023-02-20T08:11:36.121Z,4.30
2023-02-20T08:14:10.103Z,4.38
2023-02-20T08:16:41.354Z,4.88
2023-02-20T08:19:12.262Z,2.30
2023-02-20T08:21:42.625Z,4.20
2023-02-20T08:24:13.114Z,3.90
2023-02-20T08:26:51.237Z,6.05
2023-02-20T08:29:21.917Z,6.88
2023-02-20T08:31:52.317Z,10.55
2023-02-20T08:34:22.608Z,7.05
2023-02-20T08:36:53.272Z,9.02
2023-02-20T08:39:23.548Z,7.97
2023-02-20T08:41:54.243Z,7.32
2023-02-20T08:44:24.855Z,6.38
2023-02-20T08:46:55.542Z,5.75
2023-02-20T08:49:27.258Z,5.82
2023-02-20T08:52:00.131Z,4.03
2023-02-20T08:54:30.913Z,3.72
2023-02-20T08:57:03.795Z,4.50
2023-02-20T08:59:39.025Z,3.40
2023-02-20T09:02:10.823Z,3.23
2023-02-20T09:04:41.369Z,4.07
2023-02-20T09:07:12.011Z,4.25
2023-02-20T09:09:43.044Z,4.90
2023-02-20T09:12:14.528Z,3.97
2023-02-20T09:14:45.415Z,3.65
2023-02-20T09:17:16.685Z,5.30
2023-02-20T09:19:47.270Z,3.33
2023-02-20T09:22:18.796Z,7.70
2023-02-20T09:24:50.604Z,11.57
2023-02-20T09:27:21.453Z,10.40
2023-02-20T09:29:52.764Z,8.60
2023-02-20T09:32:24.063Z,8.85
2023-02-20T09:34:56.026Z,8.00
2023-02-20T09:37:27.178Z,10.73
2023-02-20T09:39:59.593Z,13.43
2023-02-20T09:42:56.792Z,11.20
2023-02-20T09:45:32.004Z,10.68
2023-02-20T09:48:03.147Z,8.77
2023-02-20T09:50:34.377Z,8.05
2023-02-20T09:53:23.525Z,11.35
2023-02-20T09:55:55.071Z,11.20
2023-02-20T09:58:31.203Z,11.80
2023-02-20T10:01:04.199Z,12.25
2023-02-20T10:03:59.076Z,12.05
2023-02-20T10:06:33.206Z,9.48
2023-02-20T10:09:07.181Z,10.77
2023-02-20T10:11:58.215Z,10.23
2023-02-20T10:14:54.012Z,9.00
2023-02-20T10:17:44.342Z,11.30
2023-02-20T10:20:45.909Z,10.18
2023-02-20T10:23:49.293Z,12.77
2023-02-20T10:26:39.103Z,9.80
2023-02-20T10:29:32.202Z,10.73
2023-02-20T10:32:17.301Z,12.55
2023-02-20T10:35:11.115Z,10.93
2023-02-20T10:37:50.855Z,9.55
2023-02-20T10:40:50.700Z,12.45
2023-02-20T10:43:42.203Z,11.27
2023-02-20T10:46:49.386Z,9.52
2023-02-20T10:49:43.025Z,11.65
2023-02-20T10:52:32.610Z,11.15
2023-02-20T10:55:42.082Z,14.13
2023-02-20T10:59:00.253Z,11.45
2023-02-20T11:04:04.391Z,10.55
2023-02-20T11:06:49.181Z,8.95
2023-02-20T11:09:19.550Z,11.15
2023-02-20T11:11:50.693Z,9.38
2023-02-20T11:14:37.915Z,11.13
2023-02-20T11:17:21.462Z,13.35
2023-02-20T11:20:03.642Z,9.10
2023-02-20T11:22:51.838Z,8.55
2023-02-20T11:25:32.477Z,12.18
2023-02-20T11:28:41.072Z,10.18
2023-02-20T11:31:12.346Z,12.93
2023-02-20T11:33:52.383Z,11.20
2023-02-20T11:36:34.948Z,8.20
2023-02-20T11:39:15.434Z,11.35
2023-02-20T11:41:45.657Z,9.75
2023-02-20T11:44:25.384Z,7.28
2023-02-20T11:47:23.598Z,10.25
2023-02-20T11:50:19.205Z,9.57
2023-02-20T11:53:27.082Z,10.10
2023-02-20T11:56:15.772Z,10.45
2023-02-20T11:58:49.598Z,8.98
2023-02-20T12:01:41.914Z,11.93
2023-02-20T12:04:27.288Z,9.95
2023-02-20T12:06:58.450Z,9.23
2023-02-20T12:09:33.688Z,9.90
2023-02-20T12:12:04.354Z,10.98
2023-02-20T12:14:34.985Z,11.13
2023-02-20T12:17:34.507Z,10.45
2023-02-20T12:20:33.599Z,9.10
2023-02-20T12:23:21.249Z,12.63
2023-02-20T12:26:10.249Z,9.70
2023-02-20T12:28:49.926Z,11.02
2023-02-20T12:31:54.316Z,9.40
2023-02-20T12:34:48.484Z,6.03
2023-02-20T12:37:40.411Z,9.65
2023-02-20T12:40:26.606Z,10.07
2023-02-20T12:43:17.721Z,8.65
2023-02-20T12:46:16.766Z,6.93
2023-02-20T12:48:56.385Z,7.07
2023-02-20T12:51:41.463Z,7.47
2023-02-20T12:54:14.505Z,8.07
2023-02-20T12:56:58.506Z,9.75
2023-02-20T12:59:54.345Z,12.55
2023-02-20T13:02:41.301Z,6.80
2023-02-20T13:05:20.969Z,8.25
2023-02-20T13:07:57.733Z,9.93
2023-02-20T13:10:35.858Z,11.82
2023-02-20T13:13:06.741Z,7.78
2023-02-20T13:16:04.690Z,9.73
2023-02-20T13:18:50.476Z,8.75
2023-02-20T13:21:25.666Z,9.57
2023-02-20T13:24:15.061Z,8.65
2023-02-20T13:26:54.361Z,7.90
2023-02-20T13:29:30.685Z,8.60
2023-02-20T13:34:44.701Z,10.02
2023-02-20T13:37:36.560Z,7.40
2023-02-20T13:40:33.122Z,7.32
2023-02-20T13:43:16.450Z,7.82
2023-02-20T13:45:50.879Z,6.85
2023-02-20T13:48:36.972Z,9.68
2023-02-20T13:51:27.476Z,6.63
2023-02-20T13:54:16.926Z,8.05
2023-02-20T13:56:53.857Z,11.02
2023-02-20T13:59:25.734Z,8.60
2023-02-20T14:02:19.899Z,7.82
2023-02-20T14:04:58.290Z,9.10
2023-02-20T14:07:42.598Z,9.15
2023-02-20T14:10:40.471Z,7.68
2023-02-20T14:13:39.474Z,7.47
2023-02-20T14:16:36.312Z,9.02
2023-02-20T14:19:22.007Z,8.52
2023-02-20T14:21:52.883Z,8.85
2023-02-20T14:24:30.827Z,7.95
2023-02-20T14:27:02.843Z,9.98
2023-02-20T14:29:40.920Z,8.27
2023-02-20T14:32:17.604Z,7.72
2023-02-20T14:35:32.809Z,6.85
2023-02-20T14:38:30.805Z,9.82
2023-02-20T14:41:02.092Z,11.25
2023-02-20T14:43:32.404Z,9.95
2023-02-20T14:46:09.312Z,8.55
2023-02-20T14:48:42.586Z,6.53
2023-02-20T14:51:42.969Z,7.63
2023-02-20T14:54:22.720Z,8.25
2023-02-20T14:56:57.875Z,9.30
2023-02-20T14:59:36.026Z,8.35
2023-02-20T15:02:33.876Z,6.78
2023-02-20T15:05:05.352Z,6.97
2023-02-20T15:07:36.630Z,7.60
2023-02-20T15:10:28.603Z,7.75
2023-02-20T15:13:06.831Z,11.45
2023-02-20T15:15:40.407Z,8.93
2023-02-20T15:18:19.132Z,10.20
2023-02-20T15:20:51.681Z,9.65
2023-02-20T15:23:29.489Z,6.88
2023-02-20T15:26:01.521Z,7.45
2023-02-20T15:28:34.710Z,10.88
2023-02-20T15:31:14.827Z,9.52
2023-02-20T15:33:58.236Z,9.63
2023-02-20T15:36:29.852Z,8.45
2023-02-20T15:39:01.488Z,9.52
2023-02-20T15:41:36.690Z,9.57
2023-02-20T15:44:07.858Z,8.73
2023-02-20T15:46:38.740Z,12.38
2023-02-20T15:49:19.277Z,7.07
2023-02-20T15:51:58.763Z,7.35
2023-02-20T15:54:32.414Z,10.25
2023-02-20T15:57:04.028Z,9.38
2023-02-20T15:59:34.409Z,7.43
2023-02-20T16:02:04.715Z,9.75
2023-02-20T16:04:35.220Z,9.38
2023-02-20T16:07:06.410Z,9.73
2023-02-20T16:09:37.497Z,10.55
2023-02-20T16:12:08.279Z,8.27
2023-02-20T16:14:39.084Z,8.52
2023-02-20T16:17:12.989Z,8.82
2023-02-20T16:19:43.566Z,8.88
2023-02-20T16:22:15.217Z,8.18
2023-02-20T16:24:46.397Z,9.18
2023-02-20T16:27:26.182Z,8.63
2023-02-20T16:29:57.465Z,10.18
2023-02-20T16:32:30.120Z,8.35
2023-02-20T16:35:03.272Z,11.90
2023-02-20T16:37:34.181Z,11.70
2023-02-20T16:40:04.535Z,8.40
2023-02-20T16:42:41.771Z,9.30
2023-02-20T16:45:18.185Z,8.35
2023-02-20T16:47:54.846Z,8.85
2023-02-20T16:50:31.059Z,7.28
2023-02-20T16:53:08.428Z,8.15
2023-02-20T16:55:41.519Z,10.55
2023-02-20T16:58:12.354Z,10.15
2023-02-20T17:00:56.602Z,8.27
2023-02-20T17:03:29.749Z,14.70
2023-02-20T17:06:03.493Z,11.70
2023-02-20T17:08:33.735Z,8.18
2023-02-20T17:11:04.093Z,7.82
2023-02-20T17:13:34.738Z,10.50
2023-02-20T17:16:04.996Z,12.63
2023-02-20T17:18:35.639Z,11.30
2023-02-20T17:21:06.340Z,8.40
2023-02-20T17:23:36.632Z,10.63
2023-02-20T17:26:07.284Z,7.38
2023-02-20T17:28:38.126Z,10.65
2023-02-20T17:31:08.538Z,7.93
2023-02-20T17:33:38.929Z,7.40
2023-02-20T17:36:09.556Z,8.63
2023-02-20T17:38:43.716Z,8.70
2023-02-20T17:41:14.699Z,10.00
2023-02-20T17:43:46.367Z,7.93
2023-02-20T17:46:19.292Z,8.38
2023-02-20T17:48:51.284Z,8.27
2023-02-20T17:51:23.810Z,8.52
2023-02-20T17:53:54.513Z,8.95
2023-02-20T17:56:25.452Z,7.72
2023-02-20T17:58:55.746Z,7.63
2023-02-20T18:01:29.294Z,8.57
2023-02-20T18:03:59.795Z,8.93
2023-02-20T18:06:30.523Z,6.45
2023-02-20T18:09:01.404Z,8.63
2023-02-20T18:11:32.121Z,10.05
2023-02-20T18:14:02.699Z,10.40
2023-02-20T18:16:33.152Z,7.18
2023-02-20T18:19:04.037Z,8.30
2023-02-20T18:21:34.442Z,9.75
2023-02-20T18:24:06.399Z,9.95
2023-02-20T18:26:37.934Z,8.38
2023-02-20T18:29:08.188Z,8.32
2023-02-20T18:31:38.625Z,9.65
2023-02-20T18:34:09.048Z,8.02
2023-02-20T18:36:39.586Z,6.82
2023-02-20T18:39:11.951Z,8.98
2023-02-20T18:41:43.797Z,9.68
2023-02-20T18:44:14.050Z,8.65
2023-02-20T18:46:44.414Z,10.32
2023-02-20T18:49:15.178Z,11.43
2023-02-20T18:51:47.982Z,7.57
2023-02-20T18:54:22.270Z,9.38
2023-02-20T18:56:53.918Z,7.97
2023-02-20T18:59:27.408Z,7.47
2023-02-20T19:02:00.955Z,8.75
2023-02-20T19:04:33.300Z,8.38
2023-02-20T19:07:05.362Z,11.13
2023-02-20T19:09:39.688Z,6.72
2023-02-20T19:12:10.269Z,8.88
2023-02-20T19:14:41.366Z,7.50
2023-02-20T19:17:12.964Z,6.38
2023-02-20T19:19:44.205Z,6.40
2023-02-20T19:22:14.857Z,9.82
2023-02-20T19:24:45.259Z,13.05
2023-02-20T19:27:16.105Z,10.18
2023-02-20T19:29:47.484Z,11.48
2023-02-20T19:32:18.107Z,8.02
2023-02-20T19:34:52.009Z,8.90
2023-02-20T19:37:23.898Z,9.07
2023-02-20T19:39:54.276Z,11.00
2023-02-20T19:42:28.336Z,8.32
2023-02-20T19:44:59.745Z,8.85
2023-02-20T19:47:30.825Z,8.85
2023-02-20T19:50:01.707Z,9.70
2023-02-20T19:52:32.184Z,8.68
2023-02-20T19:55:02.882Z,11.80
2023-02-20T19:57:33.210Z,10.30
2023-02-20T20:00:03.449Z,7.78
2023-02-20T20:02:33.835Z,9.32
2023-02-20T20:05:04.155Z,6.68
2023-02-20T20:07:35.012Z,8.93
2023-02-20T20:10:06.964Z,8.55
2023-02-20T20:12:49.936Z,8.55
2023-02-20T20:15:30.768Z,8.25
2023-02-20T20:18:03.011Z,15.00
2023-02-20T20:20:35.989Z,8.07
2023-02-20T20:23:07.647Z,9.00
2023-02-20T20:25:41.260Z,9.63
2023-02-20T20:28:14.228Z,9.52
2023-02-20T20:30:46.853Z,12.02
2023-02-20T20:33:18.712Z,10.65
2023-02-20T20:35:49.114Z,10.68
2023-02-20T20:38:24.271Z,11.15
2023-02-20T20:40:54.630Z,10.50
2023-02-20T20:43:24.957Z,8.68
2023-02-20T20:45:55.976Z,8.50
2023-02-20T20:48:26.289Z,11.70
2023-02-20T20:50:56.839Z,9.20
2023-02-20T20:53:27.314Z,9.68
2023-02-20T20:55:58.067Z,13.02
2023-02-20T20:58:29.546Z,11.55
2023-02-20T21:01:00.410Z,9.30
2023-02-20T21:03:31.779Z,9.60
2023-02-20T21:06:02.814Z,8.88
2023-02-20T21:08:35.029Z,10.10
2023-02-20T21:11:06.324Z,10.00
2023-02-20T21:13:36.655Z,8.48
2023-02-20T21:16:07.457Z,9.70
2023-02-20T21:18:39.189Z,10.35
2023-02-20T21:21:09.464Z,11.10
2023-02-20T21:23:42.110Z,8.65
2023-02-20T21:26:12.800Z,9.27
2023-02-20T21:28:43.316Z,9.38
2023-02-20T21:31:13.892Z,10.57
2023-02-20T21:33:44.879Z,11.68
2023-02-20T21:36:15.744Z,13.05
2023-02-20T21:38:46.718Z,8.98
2023-02-20T21:41:42.953Z,10.57
2023-02-20T21:44:31.282Z,9.03
2023-02-20T21:47:04.443Z,9.68
2023-02-20T21:49:37.076Z,9.25
2023-02-20T21:52:07.741Z,10.07
2023-02-20T21:54:38.590Z,9.25
2023-02-20T21:57:09.563Z,10.68
2023-02-20T21:59:39.913Z,8.38
2023-02-20T22:02:10.480Z,7.95
2023-02-20T22:04:40.334Z,9.45
2023-02-20T22:07:28.809Z,7.40
2023-02-20T22:10:17.599Z,10.65
2023-02-20T22:13:07.276Z,9.00
2023-02-20T22:15:55.418Z,10.02
2023-02-20T22:18:45.790Z,8.68
2023-02-20T22:21:44.585Z,6.32
2023-02-20T22:24:39.739Z,6.13
2023-02-20T22:27:30.849Z,7.03
2023-02-20T22:30:20.065Z,8.73
2023-02-20T22:33:09.251Z,7.57
2023-02-20T22:35:57.440Z,6.95
2023-02-20T22:38:48.857Z,6.95
2023-02-20T22:41:43.913Z,8.95
2023-02-20T22:44:34.960Z,6.07
2023-02-20T22:47:25.670Z,6.18
2023-02-20T22:50:14.093Z,5.03
2023-02-20T22:53:02.592Z,6.47
2023-02-20T22:55:51.028Z,7.22
2023-02-20T22:58:39.212Z,7.00
2023-02-20T23:01:28.622Z,7.20
2023-02-20T23:04:17.461Z,5.88
2023-02-20T23:07:06.040Z,6.93
2023-02-20T23:09:54.039Z,5.80
2023-02-20T23:12:42.598Z,6.28
2023-02-20T23:15:32.114Z,5.82
2023-02-20T23:18:21.940Z,7.07
2023-02-20T23:21:10.358Z,4.93
2023-02-20T23:23:59.728Z,6.30
2023-02-20T23:26:51.865Z,4.43
2023-02-20T23:29:41.472Z,4.32
2023-02-20T23:32:30.470Z,4.75
2023-02-20T23:35:19.692Z,5.00
2023-02-20T23:38:10.727Z,6.72
2023-02-20T23:41:00.180Z,4.40
2023-02-20T23:43:52.945Z,4.18
2023-02-20T23:46:42.233Z,6.63
2023-02-20T23:49:30.571Z,6.10
2023-02-20T23:52:18.746Z,5.88
2023-02-20T23:55:06.743Z,4.68
2023-02-20T23:57:54.878Z,5.93
